• UTC

LHBC 220545Z 11007KT 9999 SCT040TCU SCT083 18/15 Q1017        

LHBP 220700Z 10007KT 9999 FEW028 SCT050 19/15 Q1017 NOSIG        

LHDC 220645Z 08004KT 9999 FEW040 BKN083 17/15 Q1018 RERA NOSIG        

LHKE 220645Z 14008KT 110V200 9999 FEW023 SCT030 20/15 Q1017 NOSIG RMK BLU        

LHPA 220645Z 12004KT 9999 FEW023 19/14 Q1015 NOSIG RMK BLU        

LHPP 220645Z 11006KT CAVOK 19/14 Q1016        

LHPR 220645Z 13008KT 100V170 9999 FEW020 SCT200 19/15 Q1016 RMK BLU        

LHSM 220645Z 08006KT 9999 FEW014 19/15 Q1015 NOSIG        

LHSN 220645Z 09006KT 060V120 CAVOK 19/16 Q1017 NOSIG RMK BLU        

LHUD 220645Z 12010KT CAVOK 21/15 Q1017